createdAt,value
2018-04-19T00:00:58.799Z,16.13
2018-04-19T00:02:09.765Z,16.10
2018-04-19T00:03:14.771Z,16.13
2018-04-19T00:04:18.972Z,15.40
2018-04-19T00:05:27.942Z,15.93
2018-04-19T00:06:36.680Z,16.60
2018-04-19T00:07:41.833Z,15.20
2018-04-19T00:08:46.029Z,16.27
2018-04-19T00:09:54.817Z,15.13
2018-04-19T00:11:06.472Z,16.60
2018-04-19T00:12:12.047Z,14.80
2018-04-19T00:13:16.240Z,15.07
2018-04-19T00:14:22.790Z,16.40
2018-04-19T00:15:34.890Z,15.83
2018-04-19T00:16:41.236Z,16.20
2018-04-19T00:17:45.529Z,16.40
2018-04-19T00:18:56.294Z,16.47
2018-04-19T00:20:06.052Z,16.13
2018-04-19T00:21:11.025Z,16.90
2018-04-19T00:22:15.228Z,17.33
2018-04-19T00:23:19.462Z,16.37
2018-04-19T00:24:30.134Z,16.20
2018-04-19T00:25:39.707Z,16.73
2018-04-19T00:26:44.021Z,16.53
2018-04-19T00:27:48.290Z,16.90
2018-04-19T00:28:58.832Z,18.07
2018-04-19T00:30:30.178Z,16.70
2018-04-19T00:31:43.262Z,18.13
2018-04-19T00:32:47.615Z,15.97
2018-04-19T00:34:00.791Z,17.87
2018-04-19T00:35:12.595Z,16.73
2018-04-19T00:36:17.271Z,17.37
2018-04-19T00:37:23.974Z,18.03
2018-04-19T00:38:36.862Z,16.80
2018-04-19T00:39:42.400Z,17.20
2018-04-19T00:40:46.622Z,17.17
2018-04-19T00:41:54.722Z,16.37
2018-04-19T00:43:04.253Z,17.80
2018-04-19T00:44:12.962Z,18.03
2018-04-19T00:45:17.353Z,18.20
2018-04-19T00:46:26.706Z,17.10
2018-04-19T00:47:34.180Z,18.43
2018-04-19T00:48:41.781Z,18.03
2018-04-19T00:49:45.981Z,18.37
2018-04-19T00:50:53.043Z,17.27
2018-04-19T00:52:03.285Z,18.50
2018-04-19T00:53:11.465Z,17.30
2018-04-19T00:54:15.725Z,18.70
2018-04-19T00:55:20.204Z,18.50
2018-04-19T00:56:31.884Z,18.43
2018-04-19T00:57:40.726Z,18.20
2018-04-19T00:58:44.938Z,19.53
2018-04-19T00:59:49.416Z,19.03
2018-04-19T01:01:01.618Z,19.40
2018-04-19T01:02:09.670Z,17.30
2018-04-19T01:03:13.903Z,19.00
2018-04-19T01:04:18.186Z,19.90
2018-04-19T01:05:32.609Z,20.10
2018-04-19T01:06:40.115Z,19.00
2018-04-19T01:07:45.174Z,20.07
2018-04-19T01:09:22.446Z,19.17
2018-04-19T01:10:32.282Z,18.17
2018-04-19T01:11:40.065Z,19.60
2018-04-19T01:12:44.261Z,17.20
2018-04-19T01:13:48.470Z,19.50
2018-04-19T01:14:58.684Z,20.53
2018-04-19T01:16:09.296Z,20.17
2018-04-19T01:17:13.511Z,19.43
2018-04-19T01:18:18.016Z,20.20
2018-04-19T01:19:28.154Z,18.60
2018-04-19T01:20:38.870Z,20.07
2018-04-19T01:21:44.050Z,20.40
2018-04-19T01:22:48.362Z,19.43
2018-04-19T01:24:01.336Z,19.00
2018-04-19T01:25:11.551Z,19.27
2018-04-19T01:26:15.848Z,18.53
2018-04-19T01:27:20.804Z,19.70
2018-04-19T01:28:35.075Z,19.77
2018-04-19T01:29:40.761Z,20.40
2018-04-19T01:30:45.732Z,19.70
2018-04-19T01:31:54.848Z,20.00
2018-04-19T01:33:05.512Z,19.20
2018-04-19T01:34:11.067Z,19.83
2018-04-19T01:35:15.368Z,19.80
2018-04-19T01:36:29.906Z,20.73
2018-04-19T01:37:39.328Z,19.87
2018-04-19T01:38:43.961Z,19.33
2018-04-19T01:39:48.166Z,20.47
2018-04-19T01:40:59.143Z,20.50
2018-04-19T01:42:08.285Z,18.20
2018-04-19T01:43:12.967Z,22.87
2018-04-19T01:44:17.999Z,19.50
2018-04-19T01:45:28.120Z,20.90
2018-04-19T01:46:35.799Z,21.90
2018-04-19T01:47:41.072Z,21.00
2018-04-19T01:48:46.059Z,20.07
2018-04-19T01:49:55.591Z,20.30
2018-04-19T01:51:05.956Z,21.20
2018-04-19T01:52:11.886Z,19.80
2018-04-19T01:53:16.269Z,21.70
2018-04-19T01:54:28.105Z,20.40
2018-04-19T01:55:39.263Z,20.40
2018-04-19T01:56:43.478Z,21.27
2018-04-19T01:57:47.676Z,19.27
2018-04-19T01:58:57.791Z,21.90
2018-04-19T02:00:06.455Z,21.43
2018-04-19T02:01:11.416Z,20.27
2018-04-19T02:02:15.635Z,21.10
2018-04-19T02:03:20.565Z,21.57
2018-04-19T02:04:30.797Z,20.23
2018-04-19T02:05:38.956Z,21.00
2018-04-19T02:06:43.163Z,22.00
2018-04-19T02:07:47.371Z,21.40
2018-04-19T02:08:56.883Z,21.80
2018-04-19T02:10:06.744Z,19.40
2018-04-19T02:11:12.342Z,23.63
2018-04-19T02:12:16.560Z,20.90
2018-04-19T02:13:23.998Z,20.57
2018-04-19T02:14:33.119Z,22.27
2018-04-19T02:15:40.612Z,22.53
2018-04-19T02:16:44.814Z,22.00
2018-04-19T02:17:49.046Z,23.73
2018-04-19T02:19:00.182Z,22.97
2018-04-19T02:20:07.659Z,21.77
2018-04-19T02:21:12.429Z,22.93
2018-04-19T02:22:16.643Z,21.63
2018-04-19T02:23:26.396Z,22.23
2018-04-19T02:24:36.253Z,21.37
2018-04-19T02:25:42.102Z,23.63
2018-04-19T02:26:46.317Z,22.97
2018-04-19T02:27:55.117Z,23.23
2018-04-19T02:29:06.519Z,23.00
2018-04-19T02:30:12.161Z,24.27
2018-04-19T02:31:16.365Z,21.87
2018-04-19T02:32:24.839Z,23.40
2018-04-19T02:33:32.636Z,24.17
2018-04-19T02:34:40.559Z,22.90
2018-04-19T02:35:45.272Z,21.90
2018-04-19T02:36:49.560Z,23.50
2018-04-19T02:38:03.874Z,23.83
2018-04-19T02:39:11.623Z,24.33
2018-04-19T02:40:15.876Z,24.57
2018-04-19T02:41:23.673Z,23.93
2018-04-19T02:42:33.376Z,24.60
2018-04-19T02:43:40.997Z,22.87
2018-04-19T02:44:45.329Z,25.73
2018-04-19T02:45:53.195Z,22.03
2018-04-19T02:47:01.191Z,21.47
2018-04-19T02:48:11.523Z,22.60
2018-04-19T02:49:15.771Z,24.87
2018-04-19T02:50:22.161Z,23.90
2018-04-19T02:51:33.258Z,23.07
2018-04-19T02:52:41.463Z,24.90
2018-04-19T02:53:45.674Z,24.90
2018-04-19T02:54:51.014Z,25.10
2018-04-19T02:56:04.937Z,23.87
2018-04-19T02:57:13.912Z,22.97
2018-04-19T02:58:18.129Z,26.57
2018-04-19T02:59:31.238Z,24.93
2018-04-19T03:00:39.315Z,26.37
2018-04-19T03:01:43.543Z,35.37
2018-04-19T03:02:47.768Z,27.40
2018-04-19T03:03:56.482Z,23.83
2018-04-19T03:05:04.587Z,24.83
2018-04-19T03:06:11.552Z,25.40
2018-04-19T03:07:15.744Z,24.63
2018-04-19T03:08:20.267Z,24.20
2018-04-19T03:09:31.919Z,25.23
2018-04-19T03:10:41.819Z,25.63
2018-04-19T03:11:46.047Z,25.30
2018-04-19T03:12:53.878Z,25.63
2018-04-19T03:14:05.122Z,26.60
2018-04-19T03:15:10.320Z,27.10
2018-04-19T03:16:14.540Z,25.50
2018-04-19T03:17:18.732Z,25.40
2018-04-19T03:18:28.196Z,27.20
2018-04-19T03:19:37.686Z,27.23
2018-04-19T03:20:42.550Z,26.80
2018-04-19T03:21:46.791Z,25.47
2018-04-19T03:22:55.683Z,26.77
2018-04-19T03:24:06.143Z,27.00
2018-04-19T03:25:11.509Z,28.03
2018-04-19T03:26:16.675Z,25.70
2018-04-19T03:27:24.573Z,27.57
2018-04-19T03:28:36.274Z,25.93
2018-04-19T03:29:41.611Z,28.50
2018-04-19T03:30:45.831Z,26.50
2018-04-19T03:31:52.777Z,27.53
2018-04-19T03:33:06.711Z,26.13
2018-04-19T03:34:11.713Z,27.57
2018-04-19T03:35:15.921Z,25.73
2018-04-19T03:36:24.035Z,27.33
2018-04-19T03:37:36.735Z,27.10
2018-04-19T03:38:42.136Z,27.17
2018-04-19T03:40:05.197Z,27.20
2018-04-19T03:41:11.260Z,27.53
2018-04-19T03:42:15.556Z,27.17
2018-04-19T03:43:22.077Z,26.53
2018-04-19T03:44:33.591Z,28.47
2018-04-19T03:45:40.285Z,28.07
2018-04-19T03:46:44.587Z,27.10
2018-04-19T03:47:48.795Z,28.20
2018-04-19T03:49:00.674Z,28.20
2018-04-19T03:50:09.382Z,25.63
2018-04-19T03:51:14.379Z,27.00
2018-04-19T03:52:18.581Z,27.57
2018-04-19T03:53:38.279Z,27.80
2018-04-19T03:54:45.722Z,26.23
2018-04-19T03:55:49.930Z,25.43
2018-04-19T03:57:02.249Z,27.80
2018-04-19T03:58:10.634Z,27.37
2018-04-19T03:59:14.864Z,28.87
2018-04-19T04:00:19.083Z,26.70
2018-04-19T04:01:31.060Z,27.17
2018-04-19T04:02:41.020Z,27.57
2018-04-19T04:03:45.242Z,28.73
2018-04-19T04:04:49.511Z,28.47
2018-04-19T04:05:59.942Z,29.53
2018-04-19T04:07:09.044Z,29.70
2018-04-19T04:08:13.636Z,26.43
2018-04-19T04:09:17.844Z,28.30
2018-04-19T04:10:29.053Z,28.80
2018-04-19T04:11:37.070Z,29.60
2018-04-19T04:12:41.750Z,29.57
2018-04-19T04:13:45.991Z,27.13
2018-04-19T04:14:52.220Z,26.77
2018-04-19T04:16:01.770Z,28.80
2018-04-19T04:17:28.811Z,28.20
2018-04-19T04:18:54.724Z,27.47
2018-04-19T04:22:07.256Z,27.00
2018-04-19T04:23:30.583Z,28.30
2018-04-19T04:24:37.119Z,28.10
2018-04-19T04:25:41.350Z,29.07
2018-04-19T04:26:46.405Z,28.20
2018-04-19T04:27:52.567Z,29.70
2018-04-19T04:29:00.281Z,28.97
2018-04-19T04:30:05.504Z,27.57
2018-04-19T04:31:10.160Z,28.20
2018-04-19T04:32:14.510Z,28.40
2018-04-19T04:33:18.817Z,29.20
2018-04-19T04:34:36.487Z,30.97
2018-04-19T04:35:41.498Z,28.43
2018-04-19T04:36:45.701Z,26.50
2018-04-19T04:37:50.959Z,30.87
2018-04-19T04:39:02.771Z,29.70
2018-04-19T04:40:10.380Z,28.40
2018-04-19T04:41:15.380Z,29.77
2018-04-19T04:42:19.675Z,30.37
2018-04-19T04:43:31.835Z,30.53
2018-04-19T04:44:41.046Z,28.70
2018-04-19T04:45:45.363Z,28.37
2018-04-19T04:46:50.342Z,29.77
2018-04-19T04:48:04.693Z,27.50
2018-04-19T04:49:10.523Z,30.07
2018-04-19T04:50:14.747Z,28.00
2018-04-19T04:51:18.963Z,29.80
2018-04-19T04:52:34.560Z,29.20
2018-04-19T04:53:41.246Z,27.90
2018-04-19T04:54:45.459Z,28.70
2018-04-19T04:55:49.746Z,29.33
2018-04-19T04:57:02.656Z,28.63
2018-04-19T04:58:12.248Z,28.87
2018-04-19T04:59:16.579Z,29.00
2018-04-19T05:00:25.872Z,31.03
2018-04-19T05:01:34.836Z,30.20
2018-04-19T05:02:40.439Z,27.83
2018-04-19T05:03:44.654Z,29.20
2018-04-19T05:04:49.082Z,28.97
2018-04-19T05:05:58.856Z,30.47
2018-04-19T05:07:05.473Z,28.70
2018-04-19T05:08:09.776Z,29.90
2018-04-19T05:09:14.809Z,28.40
2018-04-19T05:10:19.097Z,26.97
2018-04-19T05:11:27.118Z,28.50
2018-04-19T05:12:34.876Z,28.50
2018-04-19T05:13:39.721Z,27.17
2018-04-19T05:14:43.921Z,28.27
2018-04-19T05:15:48.240Z,28.30
2018-04-19T05:16:57.975Z,28.43
2018-04-19T05:18:06.631Z,27.37
2018-04-19T05:19:11.777Z,26.97
2018-04-19T05:20:16.042Z,28.40
2018-04-19T05:21:20.974Z,27.80
2018-04-19T05:22:29.539Z,28.13
2018-04-19T05:23:35.384Z,25.60
2018-04-19T05:24:39.586Z,26.87
2018-04-19T05:25:43.895Z,26.10
2018-04-19T05:26:48.144Z,25.43
2018-04-19T05:27:55.960Z,24.80
2018-04-19T05:29:01.807Z,25.77
2018-04-19T05:30:07.402Z,25.87
2018-04-19T05:31:12.455Z,24.10
2018-04-19T05:32:17.451Z,24.50
2018-04-19T05:33:29.150Z,26.50
2018-04-19T05:34:37.413Z,26.33
2018-04-19T05:35:41.639Z,25.60
2018-04-19T05:36:46.036Z,24.30
2018-04-19T05:37:57.207Z,23.13
2018-04-19T05:39:07.503Z,25.10
2018-04-19T05:40:12.912Z,23.50
2018-04-19T05:41:17.134Z,24.27
2018-04-19T05:42:26.167Z,23.93
2018-04-19T05:43:37.163Z,22.87
2018-04-19T05:44:41.848Z,22.43
2018-04-19T05:45:46.059Z,22.27
2018-04-19T05:46:52.238Z,24.10
2018-04-19T05:48:02.045Z,20.87
2018-04-19T05:49:08.301Z,21.37
2018-04-19T05:50:12.505Z,22.10
2018-04-19T05:51:16.696Z,22.00
2018-04-19T05:52:25.613Z,23.50
2018-04-19T05:53:33.126Z,23.27
2018-04-19T05:54:38.385Z,22.20
2018-04-19T05:55:42.580Z,22.53
2018-04-19T05:56:46.789Z,20.90
2018-04-19T05:58:02.367Z,20.20
2018-04-19T05:59:10.153Z,20.40
2018-04-19T06:00:15.736Z,22.00
2018-04-19T06:01:19.955Z,20.87
2018-04-19T06:02:42.783Z,20.27
2018-04-19T06:04:01.454Z,18.43
2018-04-19T06:05:09.971Z,20.37
2018-04-19T06:06:14.501Z,20.00
2018-04-19T06:07:18.880Z,21.20
2018-04-19T06:09:13.825Z,21.50
2018-04-19T06:10:31.909Z,19.63
2018-04-19T06:11:58.653Z,19.07
2018-04-19T06:14:40.171Z,18.37
2018-04-19T06:15:58.365Z,19.77
2018-04-19T06:17:15.379Z,19.63
2018-04-19T06:22:08.960Z,18.50
2018-04-19T06:23:14.999Z,20.80
2018-04-19T06:24:19.207Z,19.47
2018-04-19T06:25:30.273Z,20.53
2018-04-19T06:26:40.128Z,18.07
2018-04-19T06:28:15.886Z,18.57
2018-04-19T06:29:41.295Z,19.87
2018-04-19T06:30:46.695Z,18.77
2018-04-19T06:34:06.516Z,18.40
2018-04-19T06:35:18.431Z,18.70
2018-04-19T06:36:31.214Z,17.30
2018-04-19T06:37:40.045Z,17.13
2018-04-19T06:38:45.070Z,19.07
2018-04-19T06:39:49.619Z,19.17
2018-04-19T06:41:07.032Z,18.47
2018-04-19T06:42:16.724Z,18.27
2018-04-19T06:43:37.238Z,19.67
2018-04-19T06:44:58.039Z,19.27
2018-04-19T06:46:06.563Z,18.10
2018-04-19T06:47:12.078Z,17.83
2018-04-19T06:48:16.270Z,18.97
2018-04-19T06:49:28.792Z,19.03
2018-04-19T06:50:39.340Z,17.73
2018-04-19T06:51:52.842Z,19.03
2018-04-19T06:52:58.376Z,17.30
2018-04-19T06:54:10.063Z,16.93
2018-04-19T06:55:21.923Z,18.17
2018-04-19T06:56:26.149Z,17.67
2018-04-19T06:57:30.655Z,17.73
2018-04-19T06:58:58.153Z,17.30
2018-04-19T07:00:14.534Z,17.50
2018-04-19T07:01:21.966Z,17.30
2018-04-19T07:02:26.956Z,16.70
2018-04-19T07:03:36.787Z,17.03
2018-04-19T07:04:49.488Z,17.67
2018-04-19T07:05:53.734Z,17.53
2018-04-19T07:06:57.932Z,16.77
2018-04-19T07:08:19.194Z,18.20
2018-04-19T07:09:25.958Z,17.63
2018-04-19T07:10:31.763Z,16.20
2018-04-19T07:11:48.303Z,16.40
2018-04-19T07:12:53.684Z,16.37
2018-04-19T07:13:58.198Z,16.90
2018-04-19T07:15:07.563Z,16.00
2018-04-19T07:16:17.597Z,15.87
2018-04-19T07:17:22.238Z,15.30
2018-04-19T07:18:26.436Z,15.50
2018-04-19T07:19:31.050Z,16.27
2018-04-19T07:20:40.468Z,15.37
2018-04-19T07:21:48.031Z,16.80
2018-04-19T07:22:52.249Z,15.67
2018-04-19T07:23:57.266Z,15.80
2018-04-19T07:25:07.027Z,15.97
2018-04-19T07:26:16.300Z,15.60
2018-04-19T07:27:20.514Z,16.27
2018-04-19T07:28:24.726Z,15.03
2018-04-19T07:29:28.920Z,15.43
2018-04-19T07:30:41.706Z,15.93
2018-04-19T07:31:48.423Z,15.50
2018-04-19T07:32:53.424Z,14.33
2018-04-19T07:33:57.823Z,15.93
2018-04-19T07:35:06.781Z,14.60
2018-04-19T07:36:15.673Z,14.73
2018-04-19T07:37:19.970Z,14.77
2018-04-19T07:38:24.291Z,15.67
2018-04-19T07:39:28.496Z,15.67
2018-04-19T07:40:36.747Z,14.00
2018-04-19T07:41:43.309Z,15.80
2018-04-19T07:42:48.264Z,15.00
2018-04-19T07:43:52.476Z,14.77
2018-04-19T07:44:56.824Z,15.07
2018-04-19T07:46:04.133Z,15.47
2018-04-19T07:47:10.695Z,14.23
2018-04-19T07:48:16.645Z,16.57
2018-04-19T07:49:20.860Z,14.60
2018-04-19T07:50:25.254Z,15.10
2018-04-19T07:51:29.531Z,13.60
2018-04-19T07:52:37.921Z,14.20
2018-04-19T07:53:42.964Z,15.60
2018-04-19T07:54:47.824Z,15.20
2018-04-19T07:55:52.048Z,15.70
2018-04-19T07:56:56.339Z,14.50
2018-04-19T07:58:00.673Z,14.43
2018-04-19T07:59:08.042Z,15.20
2018-04-19T08:00:12.883Z,15.03
2018-04-19T08:01:18.249Z,14.40
2018-04-19T08:02:22.452Z,14.90
2018-04-19T08:03:26.669Z,15.20
2018-04-19T08:04:32.211Z,14.57
2018-04-19T08:05:39.556Z,15.20
2018-04-19T08:06:44.385Z,14.30
2018-04-19T08:07:48.652Z,14.03
2018-04-19T08:08:52.844Z,14.60
2018-04-19T08:09:57.330Z,14.40
2018-04-19T08:11:03.691Z,14.40
2018-04-19T08:12:10.470Z,14.43
2018-04-19T08:13:16.155Z,14.63
2018-04-19T08:14:20.358Z,15.10
2018-04-19T08:15:24.728Z,14.73
2018-04-19T08:16:29.030Z,13.33
2018-04-19T08:17:35.518Z,14.07
2018-04-19T08:18:40.199Z,12.50
2018-04-19T08:19:45.511Z,14.10
2018-04-19T08:20:49.937Z,12.60
2018-04-19T08:21:54.282Z,12.00
2018-04-19T08:22:58.566Z,13.37
2018-04-19T08:24:03.991Z,12.77
2018-04-19T08:25:10.762Z,13.50
2018-04-19T08:26:16.243Z,12.83
2018-04-19T08:27:20.490Z,13.67
2018-04-19T08:28:24.897Z,12.90
2018-04-19T08:29:29.106Z,12.57
2018-04-19T08:30:34.920Z,12.23
2018-04-19T08:31:39.818Z,11.53
2018-04-19T08:32:44.503Z,11.77
2018-04-19T08:33:48.818Z,12.40
2018-04-19T08:34:53.016Z,12.50
2018-04-19T08:35:57.236Z,12.30
2018-04-19T08:37:02.247Z,12.00
2018-04-19T08:38:06.986Z,11.57
2018-04-19T08:39:11.728Z,12.10
2018-04-19T08:40:16.065Z,11.20
2018-04-19T08:41:20.329Z,12.13
2018-04-19T08:42:24.565Z,10.90
2018-04-19T08:43:28.768Z,12.23
2018-04-19T08:44:34.545Z,11.50
2018-04-19T08:45:42.712Z,11.73
2018-04-19T08:46:47.451Z,11.73
2018-04-19T08:47:51.664Z,10.93
2018-04-19T08:48:55.906Z,11.80
2018-04-19T08:50:01.603Z,11.20
2018-04-19T08:51:08.750Z,11.97
2018-04-19T08:52:14.116Z,11.40
2018-04-19T08:53:18.597Z,10.83
2018-04-19T08:54:23.598Z,11.13
2018-04-19T08:55:27.809Z,11.77
2018-04-19T08:56:32.875Z,11.30
2018-04-19T08:57:37.765Z,10.97
2018-04-19T08:58:42.618Z,11.57
2018-04-19T08:59:48.821Z,10.10
2018-04-19T09:00:53.042Z,11.70
2018-04-19T09:01:57.263Z,11.50
2018-04-19T09:03:02.136Z,11.97
2018-04-19T09:04:10.964Z,11.20
2018-04-19T09:05:15.991Z,11.73
2018-04-19T09:06:20.204Z,11.40
2018-04-19T09:07:24.403Z,11.00
2018-04-19T09:08:29.381Z,10.60
2018-04-19T09:09:34.721Z,9.67
2018-04-19T09:10:39.694Z,10.90
2018-04-19T09:11:44.140Z,9.70
2018-04-19T09:12:48.484Z,10.40
2018-04-19T09:13:52.852Z,10.43
2018-04-19T09:14:57.092Z,9.60
2018-04-19T09:16:04.095Z,10.30
2018-04-19T09:17:08.905Z,10.30
2018-04-19T09:18:13.366Z,10.10
2018-04-19T09:19:17.639Z,10.80
2018-04-19T09:20:21.832Z,9.33
2018-04-19T09:21:26.066Z,8.93
2018-04-19T09:22:30.418Z,9.10
2018-04-19T09:23:37.722Z,10.20
2018-04-19T09:24:43.765Z,8.60
2018-04-19T09:25:48.397Z,8.53
2018-04-19T09:26:52.666Z,8.67
2018-04-19T09:27:57.020Z,9.07
2018-04-19T09:29:02.024Z,9.07
2018-04-19T09:30:09.772Z,9.43
2018-04-19T09:31:16.698Z,8.90
2018-04-19T09:32:21.262Z,9.73
2018-04-19T09:33:25.460Z,9.00
2018-04-19T09:34:29.652Z,8.43
2018-04-19T09:35:43.623Z,8.80
2018-04-19T09:36:49.435Z,7.97
2018-04-19T09:37:53.666Z,8.80
2018-04-19T09:38:57.879Z,9.00
2018-04-19T09:40:02.644Z,9.37
2018-04-19T09:41:07.462Z,8.90
2018-04-19T09:42:12.859Z,8.57
2018-04-19T09:43:17.281Z,9.07
2018-04-19T09:44:21.490Z,8.50
2018-04-19T09:45:25.694Z,8.63
2018-04-19T09:46:29.903Z,8.73
2018-04-19T09:47:38.371Z,12.53
2018-04-19T09:48:43.809Z,9.43
2018-04-19T09:49:49.162Z,9.13
2018-04-19T09:50:54.138Z,9.90
2018-04-19T09:51:58.451Z,9.07
2018-04-19T09:53:06.088Z,9.80
2018-04-19T09:54:10.871Z,10.53
2018-04-19T09:55:18.091Z,10.10
2018-04-19T09:56:22.285Z,9.03
2018-04-19T09:57:26.484Z,9.67
2018-04-19T09:58:30.709Z,8.47
2018-04-19T09:59:38.854Z,9.37
2018-04-19T10:00:46.111Z,8.93
2018-04-19T10:01:52.058Z,8.70
2018-04-19T10:02:59.288Z,10.60
2018-04-19T10:04:07.981Z,9.23
2018-04-19T10:05:19.610Z,8.70
2018-04-19T10:06:23.997Z,9.20
2018-04-19T10:07:28.397Z,9.53
2018-04-19T10:08:35.844Z,8.43
2018-04-19T10:09:41.490Z,8.43
2018-04-19T10:10:49.177Z,8.70
2018-04-19T10:11:53.665Z,8.50
2018-04-19T10:12:57.910Z,8.83
2018-04-19T10:14:05.469Z,9.00
2018-04-19T10:15:13.258Z,8.93
2018-04-19T10:16:20.866Z,8.97
2018-04-19T10:17:25.068Z,8.20
2018-04-19T10:18:29.307Z,8.50
2018-04-19T10:19:38.182Z,8.30
2018-04-19T10:20:47.118Z,8.37
2018-04-19T10:21:52.818Z,9.20
2018-04-19T10:22:57.968Z,8.27
2018-04-19T10:24:05.233Z,7.80
2018-04-19T10:25:12.953Z,8.00
2018-04-19T10:26:19.472Z,8.40
2018-04-19T10:27:23.945Z,7.53
2018-04-19T10:28:28.174Z,8.57
2018-04-19T10:29:35.613Z,8.47
2018-04-19T10:30:46.170Z,8.30
2018-04-19T10:31:51.586Z,8.00
2018-04-19T10:32:55.786Z,8.50
2018-04-19T10:34:00.147Z,9.50
2018-04-19T10:35:10.421Z,7.93
2018-04-19T10:36:19.603Z,7.63
2018-04-19T10:37:23.862Z,8.00
2018-04-19T10:38:28.062Z,8.27
2018-04-19T10:39:35.331Z,9.10
2018-04-19T10:40:43.942Z,9.03
2018-04-19T10:41:48.778Z,6.93
2018-04-19T10:42:52.985Z,7.40
2018-04-19T10:43:57.622Z,7.73
2018-04-19T10:45:03.420Z,7.80
2018-04-19T10:46:10.849Z,7.17
2018-04-19T10:47:17.450Z,8.20
2018-04-19T10:48:21.755Z,7.13
2018-04-19T10:49:26.131Z,8.30
2018-04-19T10:50:31.413Z,7.77
2018-04-19T10:51:39.029Z,8.27
2018-04-19T10:52:44.735Z,7.47
2018-04-19T10:53:50.001Z,6.70
2018-04-19T10:54:54.212Z,7.30
2018-04-19T10:55:58.404Z,8.03
2018-04-19T10:57:36.280Z,7.43
2018-04-19T10:58:50.418Z,8.90
2018-04-19T10:59:55.457Z,7.20
2018-04-19T11:01:00.518Z,7.60
2018-04-19T11:02:15.623Z,7.63
2018-04-19T11:03:22.627Z,7.37
2018-04-19T11:04:26.889Z,6.10
2018-04-19T11:05:31.161Z,6.47
2018-04-19T11:06:38.524Z,6.43
2018-04-19T11:07:46.371Z,7.00
2018-04-19T11:08:52.006Z,6.47
2018-04-19T11:09:56.192Z,6.03
2018-04-19T11:11:02.775Z,5.90
2018-04-19T11:12:11.722Z,5.97
2018-04-19T11:13:19.306Z,5.67
2018-04-19T11:14:24.015Z,6.57
2018-04-19T11:15:28.223Z,6.47
2018-04-19T11:16:34.858Z,6.50
2018-04-19T11:17:43.465Z,5.27
2018-04-19T11:18:51.194Z,4.90
2018-04-19T11:19:55.506Z,5.60
2018-04-19T11:20:59.714Z,4.87
2018-04-19T11:22:08.849Z,4.20
2018-04-19T11:23:24.869Z,4.90
2018-04-19T11:24:30.719Z,4.90
2018-04-19T11:25:42.293Z,5.30
2018-04-19T11:26:51.250Z,4.57
2018-04-19T11:27:56.216Z,4.80
2018-04-19T11:29:00.640Z,4.27
2018-04-19T11:30:11.583Z,4.10
2018-04-19T11:31:19.857Z,4.03
2018-04-19T11:32:24.229Z,3.20
2018-04-19T11:33:28.431Z,3.73
2018-04-19T11:34:39.590Z,3.60
2018-04-19T11:35:49.499Z,4.17
2018-04-19T11:36:53.701Z,5.23
2018-04-19T11:37:57.962Z,5.60
2018-04-19T11:39:09.755Z,4.57
2018-04-19T11:40:19.649Z,4.50
2018-04-19T11:41:25.140Z,5.20
2018-04-19T11:42:29.359Z,5.87
2018-04-19T11:43:43.424Z,5.37
2018-04-19T11:44:52.444Z,5.93
2018-04-19T11:45:56.660Z,5.57
2018-04-19T11:47:02.294Z,5.47
2018-04-19T11:48:16.215Z,4.53
2018-04-19T11:49:21.930Z,5.30
2018-04-19T11:50:26.901Z,5.47
2018-04-19T11:51:34.892Z,5.47
2018-04-19T11:52:43.878Z,5.10
2018-04-19T11:53:52.682Z,5.30
2018-04-19T11:54:57.157Z,5.40
2018-04-19T11:56:07.567Z,5.50
2018-04-19T11:57:21.049Z,5.40
2018-04-19T11:58:25.315Z,5.50
2018-04-19T11:59:29.597Z,5.30
2018-04-19T12:00:42.893Z,6.80
2018-04-19T12:01:52.236Z,5.90
2018-04-19T12:02:56.429Z,5.63
2018-04-19T12:04:02.109Z,6.10
2018-04-19T12:05:14.790Z,5.73
2018-04-19T12:06:20.326Z,4.73
2018-04-19T12:07:24.617Z,4.50
2018-04-19T12:08:29.762Z,4.73
2018-04-19T12:09:35.071Z,5.37
2018-04-19T12:10:39.623Z,4.80
2018-04-19T12:11:49.470Z,4.53
2018-04-19T12:12:54.154Z,4.50
2018-04-19T12:14:14.866Z,4.80
2018-04-19T12:15:20.860Z,3.80
2018-04-19T12:16:25.838Z,4.40
2018-04-19T12:17:30.204Z,3.67
2018-04-19T12:18:36.382Z,4.10
2018-04-19T12:19:42.912Z,3.77
2018-04-19T12:20:49.822Z,3.63
2018-04-19T12:21:54.043Z,4.03
2018-04-19T12:22:58.265Z,4.13
2018-04-19T12:24:07.869Z,4.13
2018-04-19T12:25:16.379Z,3.50
2018-04-19T12:26:21.728Z,4.23
2018-04-19T12:28:50.116Z,3.67
2018-04-19T12:29:55.101Z,3.50
2018-04-19T12:30:59.316Z,3.80
2018-04-19T12:32:09.412Z,3.67
2018-04-19T12:33:17.508Z,4.30
2018-04-19T12:34:22.019Z,4.40
2018-04-19T12:35:27.284Z,3.97
2018-04-19T12:36:35.653Z,3.23
2018-04-19T12:37:40.989Z,3.47
2018-04-19T12:38:49.664Z,4.20
2018-04-19T12:39:53.865Z,3.00
2018-04-19T12:40:58.089Z,4.90
2018-04-19T12:42:04.842Z,3.80
2018-04-19T12:43:14.302Z,4.63
2018-04-19T12:44:19.704Z,3.40
2018-04-19T12:45:23.946Z,3.70
2018-04-19T12:46:28.153Z,5.07
2018-04-19T12:47:35.418Z,3.63
2018-04-19T12:48:43.556Z,3.13
2018-04-19T12:49:48.912Z,3.43
2018-04-19T12:50:53.135Z,3.40
2018-04-19T12:51:58.274Z,3.20
2018-04-19T12:53:08.573Z,3.50
2018-04-19T12:54:15.949Z,3.53
2018-04-19T12:55:21.952Z,4.00
2018-04-19T12:56:26.192Z,3.37
2018-04-19T12:57:30.719Z,3.27
2018-04-19T12:58:41.464Z,3.50
2018-04-19T12:59:48.368Z,3.57
2018-04-19T13:00:52.792Z,3.43
2018-04-19T13:01:57.001Z,3.47
2018-04-19T13:03:04.187Z,3.10
2018-04-19T13:04:11.960Z,5.33
2018-04-19T13:05:20.168Z,4.10
2018-04-19T13:06:24.411Z,3.60
2018-04-19T13:07:28.609Z,3.63
2018-04-19T13:08:39.036Z,4.27
2018-04-19T13:09:46.401Z,3.63
2018-04-19T13:10:53.221Z,3.23
2018-04-19T13:11:58.210Z,3.27
2018-04-19T13:13:06.963Z,3.57
2018-04-19T13:14:15.088Z,3.30
2018-04-19T13:15:20.474Z,2.80
2018-04-19T13:16:24.710Z,2.93
2018-04-19T13:17:29.095Z,2.70
2018-04-19T13:18:36.861Z,2.87
2018-04-19T13:19:43.563Z,2.87
2018-04-19T13:20:51.558Z,2.60
2018-04-19T13:21:56.601Z,2.87
2018-04-19T13:23:01.013Z,2.87
2018-04-19T13:24:11.399Z,3.17
2018-04-19T13:25:18.620Z,2.90
2018-04-19T13:26:24.922Z,2.47
2018-04-19T13:27:29.117Z,2.80
2018-04-19T13:28:43.417Z,2.83
2018-04-19T13:29:50.686Z,3.20
2018-04-19T13:30:54.938Z,3.20
2018-04-19T13:31:59.924Z,2.90
2018-04-19T13:33:11.512Z,2.53
2018-04-19T13:34:21.169Z,2.70
2018-04-19T13:35:25.366Z,2.50
2018-04-19T13:36:29.746Z,4.53
2018-04-19T13:37:41.887Z,2.60
2018-04-19T13:38:48.758Z,2.17
2018-04-19T13:39:53.184Z,2.70
2018-04-19T13:40:57.374Z,2.63
2018-04-19T13:42:03.674Z,2.77
2018-04-19T13:43:12.233Z,3.10
2018-04-19T13:44:18.903Z,2.77
2018-04-19T13:45:23.677Z,2.53
2018-04-19T13:46:28.666Z,3.00
2018-04-19T13:47:40.419Z,2.70
2018-04-19T13:48:49.824Z,3.03
2018-04-19T13:49:54.982Z,2.40
2018-04-19T13:50:59.408Z,2.27
2018-04-19T13:52:08.502Z,2.20
2018-04-19T13:53:16.064Z,2.30
2018-04-19T13:54:22.695Z,2.83
2018-04-19T13:55:26.917Z,2.53
2018-04-19T13:56:34.231Z,2.60
2018-04-19T13:57:45.555Z,3.00
2018-04-19T13:58:51.622Z,2.67
2018-04-19T13:59:55.835Z,2.20
2018-04-19T14:01:00.128Z,2.50
2018-04-19T14:02:10.042Z,2.07
2018-04-19T14:03:19.120Z,2.10
2018-04-19T14:04:24.777Z,2.50
2018-04-19T14:05:28.977Z,2.20
2018-04-19T14:06:37.325Z,2.20
2018-04-19T14:07:43.313Z,1.70
2018-04-19T14:08:50.102Z,2.43
2018-04-19T14:09:54.391Z,2.40
2018-04-19T14:10:59.347Z,2.60
2018-04-19T14:12:07.252Z,2.40
2018-04-19T14:13:14.946Z,2.50
2018-04-19T14:14:20.679Z,2.60
2018-04-19T14:15:25.094Z,2.77
2018-04-19T14:16:29.406Z,2.33
2018-04-19T14:17:41.172Z,2.90
2018-04-19T14:18:49.349Z,2.40
2018-04-19T14:19:53.732Z,2.00
2018-04-19T14:20:57.920Z,2.47
2018-04-19T14:22:04.080Z,2.30
2018-04-19T14:23:15.339Z,2.23
2018-04-19T14:24:21.214Z,2.03
2018-04-19T14:25:25.623Z,1.67
2018-04-19T14:26:29.937Z,2.10
2018-04-19T14:27:41.839Z,2.37
2018-04-19T14:28:51.365Z,2.20
2018-04-19T14:29:56.390Z,2.30
2018-04-19T14:31:01.025Z,2.10
2018-04-19T14:32:13.610Z,2.40
2018-04-19T14:33:20.454Z,2.70
2018-04-19T14:34:30.336Z,2.00
2018-04-19T14:35:43.085Z,2.07
2018-04-19T14:36:50.690Z,2.27
2018-04-19T14:37:54.899Z,2.23
2018-04-19T14:38:59.103Z,2.07
2018-04-19T14:40:13.227Z,2.27
2018-04-19T14:41:20.984Z,2.20
2018-04-19T14:42:25.184Z,2.50
2018-04-19T14:43:29.398Z,2.57
2018-04-19T14:44:40.343Z,2.50
2018-04-19T14:45:51.723Z,2.70
2018-04-19T14:46:56.429Z,2.47
2018-04-19T14:48:00.690Z,2.30
2018-04-19T14:49:09.652Z,2.23